Time;durP1;ratioP1;P1;durP2;ratioP2;P2;SDS_P1;SDS_P2;PMS_P1;PMS_P2;Temp;Humidity;BMP_temperature;BMP_pressure;BME280_temperature;BME280_humidity;BME280_pressure;Samples;Min_cycle;Max_cycle;Signal;HPM_P1;HPM_P2
2023/06/14 00:01:21;;;;;;;4.70;2.10;;;17.10;79.10;;;;;;6248931;22;20090;-77
2023/06/14 00:03:48;;;;;;;7.57;1.98;;;17.00;79.80;;;;;;6248951;22;20024;-78
2023/06/14 00:06:14;;;;;;;5.57;1.85;;;17.10;79.60;;;;;;6249341;22;20020;-78
2023/06/14 00:08:40;;;;;;;7.30;2.00;;;17.00;80.00;;;;;;6300122;22;20391;-78
2023/06/14 00:11:06;;;;;;;7.57;2.20;;;17.00;80.50;;;;;;6249508;22;20012;-77
2023/06/14 00:13:32;;;;;;;4.82;1.80;;;16.90;80.30;;;;;;6249575;22;20031;-76
2023/06/14 00:15:57;;;;;;;6.25;2.15;;;17.00;80.80;;;;;;6276147;22;20081;-76
2023/06/14 00:18:29;;;;;;;7.70;1.98;;;16.90;80.40;;;;;;6251238;22;20011;-75
2023/06/14 00:20:55;;;;;;;6.25;2.10;;;16.90;80.70;;;;;;6250874;22;20070;-75
2023/06/14 00:23:21;;;;;;;9.27;2.13;;;17.00;80.70;;;;;;6251347;22;20061;-76
2023/06/14 00:25:47;;;;;;;7.70;2.33;;;16.90;81.40;;;;;;6224978;22;20020;-76
2023/06/14 00:28:13;;;;;;;5.80;2.05;;;16.90;81.20;;;;;;6276897;22;20058;-77
2023/06/14 00:30:38;;;;;;;5.70;2.28;;;16.90;81.30;;;;;;6251229;22;20046;-77
2023/06/14 00:33:04;;;;;;;6.60;2.10;;;16.80;81.70;;;;;;6302149;22;20461;-76
2023/06/14 00:35:30;;;;;;;8.80;2.30;;;16.80;82.10;;;;;;6275655;22;20007;-77
2023/06/14 00:37:55;;;;;;;4.00;1.90;;;16.70;82.60;;;;;;6302134;22;20012;-77
2023/06/14 00:40:21;;;;;;;7.05;1.90;;;16.70;83.30;;;;;;6302435;22;20007;-77
2023/06/14 00:42:47;;;;;;;6.72;2.17;;;16.60;83.50;;;;;;6225425;22;20111;-76
2023/06/14 00:45:13;;;;;;;6.53;2.03;;;16.60;84.60;;;;;;6250747;22;20456;-76
2023/06/14 00:47:42;;;;;;;6.03;2.00;;;16.60;83.80;;;;;;6276550;22;20093;-76
2023/06/14 00:50:09;;;;;;;7.28;2.15;;;16.60;83.50;;;;;;6224298;22;20007;-77
2023/06/14 00:52:36;;;;;;;10.10;3.22;;;16.60;83.70;;;;;;6251069;22;20015;-77
2023/06/14 00:55:01;;;;;;;5.07;1.90;;;16.60;84.60;;;;;;6225753;22;20007;-77
2023/06/14 00:57:29;;;;;;;6.65;2.05;;;16.60;84.80;;;;;;6276106;22;20058;-77
2023/06/14 00:59:55;;;;;;;7.22;2.03;;;16.50;84.50;;;;;;6225441;22;20011;-76
2023/06/14 01:02:21;;;;;;;5.95;1.98;;;16.60;84.70;;;;;;6225431;22;20057;-77
2023/06/14 01:04:49;;;;;;;5.28;1.90;;;16.70;84.60;;;;;;6223621;22;20193;-77
2023/06/14 01:07:41;;;;;;;7.45;2.10;;;16.60;84.90;;;;;;6225316;22;20020;-77
2023/06/14 01:10:39;;;;;;;5.68;2.22;;;16.60;85.10;;;;;;6250069;22;20027;-77
2023/06/14 01:13:19;;;;;;;8.40;2.63;;;16.50;87.00;;;;;;6250015;22;20030;-77
2023/06/14 01:15:46;;;;;;;10.23;2.80;;;16.40;86.50;;;;;;6225188;22;20022;-77
2023/06/14 01:18:19;;;;;;;8.80;2.88;;;16.40;86.50;;;;;;6249543;22;20354;-76
2023/06/14 01:20:49;;;;;;;7.57;2.70;;;16.40;86.10;;;;;;6224672;22;20089;-76
2023/06/14 01:23:20;;;;;;;9.82;3.00;;;16.40;87.00;;;;;;6225082;22;20327;-76
2023/06/14 01:25:46;;;;;;;7.35;3.10;;;16.40;87.00;;;;;;6249630;22;20016;-76
2023/06/14 01:28:16;;;;;;;8.98;3.13;;;16.30;87.00;;;;;;6249880;22;20086;-76
2023/06/14 01:30:46;;;;;;;7.90;2.80;;;16.30;88.00;;;;;;6223658;22;20012;-76
2023/06/14 01:33:17;;;;;;;8.70;2.65;;;16.30;87.80;;;;;;6224417;22;20007;-76
2023/06/14 01:35:45;;;;;;;8.73;3.05;;;16.30;88.20;;;;;;6223628;22;20050;-76
2023/06/14 01:38:12;;;;;;;7.75;2.80;;;16.10;88.20;;;;;;6249776;22;20011;-76
2023/06/14 01:40:39;;;;;;;6.15;2.25;;;16.30;88.80;;;;;;6224135;22;20008;-76
2023/06/14 01:43:06;;;;;;;7.10;2.80;;;16.20;88.50;;;;;;6224690;22;20012;-76
2023/06/14 01:45:33;;;;;;;8.05;2.40;;;16.30;89.60;;;;;;6224772;22;20095;-77
2023/06/14 01:48:00;;;;;;;8.25;2.72;;;16.10;90.00;;;;;;6223667;22;20015;-76
2023/06/14 01:50:29;;;;;;;6.45;2.47;;;16.10;90.20;;;;;;6223709;22;20361;-76
2023/06/14 01:52:55;;;;;;;6.05;2.50;;;16.10;90.20;;;;;;6249562;22;20062;-76
2023/06/14 01:55:22;;;;;;;6.50;2.22;;;16.00;90.80;;;;;;6299594;22;20007;-77
2023/06/14 01:57:48;;;;;;;6.25;2.40;;;16.00;91.00;;;;;;6249929;22;20465;-76
2023/06/14 02:00:15;;;;;;;6.18;2.53;;;15.90;91.30;;;;;;6249253;22;20090;-76
2023/06/14 02:02:41;;;;;;;6.35;2.20;;;15.80;91.80;;;;;;6224294;22;20022;-76
2023/06/14 02:05:07;;;;;;;5.88;2.47;;;15.70;91.80;;;;;;6249019;22;20012;-77
2023/06/14 02:07:33;;;;;;;7.53;2.45;;;15.70;92.50;;;;;;6224815;22;20019;-77
2023/06/14 02:09:59;;;;;;;7.43;2.17;;;15.60;92.20;;;;;;6224587;22;20008;-77
2023/06/14 02:12:25;;;;;;;5.70;2.08;;;15.60;92.30;;;;;;6249467;22;20062;-77
2023/06/14 02:14:51;;;;;;;4.18;2.08;;;15.60;93.10;;;;;;6250230;22;20018;-76
2023/06/14 02:17:17;;;;;;;8.43;2.17;;;15.50;93.20;;;;;;6300763;22;20388;-77
2023/06/14 02:19:43;;;;;;;5.82;2.13;;;15.40;93.80;;;;;;6224675;22;20495;-77
2023/06/14 02:22:09;;;;;;;6.35;2.28;;;15.40;93.60;;;;;;6274694;22;20015;-77
2023/06/14 02:24:35;;;;;;;5.47;1.77;;;15.40;94.60;;;;;;6224914;22;20473;-76
2023/06/14 02:27:01;;;;;;;5.35;2.10;;;15.30;95.40;;;;;;6223660;22;20023;-77
2023/06/14 02:29:27;;;;;;;4.18;2.20;;;15.40;94.30;;;;;;6223787;22;20003;-76
2023/06/14 02:31:52;;;;;;;6.95;2.17;;;15.30;94.90;;;;;;6301057;22;20090;-76
2023/06/14 02:34:19;;;;;;;6.25;2.13;;;15.30;95.60;;;;;;6300724;22;20008;-76
2023/06/14 02:36:45;;;;;;;6.70;2.15;;;15.30;95.10;;;;;;6249065;22;20015;-76
2023/06/14 02:39:11;;;;;;;8.13;2.47;;;15.40;95.00;;;;;;6249048;22;20065;-78
2023/06/14 02:41:37;;;;;;;5.25;2.15;;;15.20;96.10;;;;;;6249589;22;20008;-77
2023/06/14 02:44:03;;;;;;;6.57;2.70;;;15.20;96.70;;;;;;6249243;22;20088;-77
2023/06/14 02:46:29;;;;;;;5.47;2.20;;;15.10;97.90;;;;;;6274411;22;20008;-77
2023/06/14 02:48:54;;;;;;;5.88;2.50;;;15.20;96.80;;;;;;6274032;22;20438;-77
2023/06/14 02:51:20;;;;;;;5.75;2.40;;;15.10;98.90;;;;;;6223820;22;20018;-77
2023/06/14 02:53:45;;;;;;;5.93;2.28;;;14.90;98.90;;;;;;6274763;22;20016;-77
2023/06/14 02:56:11;;;;;;;4.82;2.38;;;14.90;99.80;;;;;;6300222;22;20346;-78
2023/06/14 02:58:39;;;;;;;5.70;2.22;;;14.80;99.60;;;;;;6249164;22;20015;-77
2023/06/14 03:01:07;;;;;;;5.65;2.22;;;14.80;99.90;;;;;;6248464;22;20144;-78
2023/06/14 03:03:33;;;;;;;5.75;2.53;;;14.80;99.90;;;;;;6249109;22;20342;-77
2023/06/14 03:06:04;;;;;;;9.00;2.70;;;14.70;99.90;;;;;;6223086;22;20011;-78
2023/06/14 03:08:31;;;;;;;8.10;2.60;;;14.60;99.90;;;;;;6223842;22;20011;-78
2023/06/14 03:10:57;;;;;;;7.10;2.60;;;14.70;99.90;;;;;;6248612;22;20008;-78
2023/06/14 03:13:23;;;;;;;8.25;2.75;;;14.70;99.90;;;;;;6249233;22;20015;-78
2023/06/14 03:15:51;;;;;;;6.68;2.70;;;14.70;99.90;;;;;;6275132;22;20081;-78
2023/06/14 03:18:17;;;;;;;6.65;2.58;;;14.60;99.90;;;;;;6248716;22;20450;-77
2023/06/14 03:20:45;;;;;;;5.65;2.40;;;14.60;99.90;;;;;;6248538;22;20023;-77
2023/06/14 03:23:11;;;;;;;7.80;2.65;;;14.60;99.90;;;;;;6248975;22;20346;-78
2023/06/14 03:25:38;;;;;;;7.22;2.78;;;14.60;99.90;;;;;;6222909;22;20015;-78
2023/06/14 03:28:04;;;;;;;5.97;2.75;;;14.60;99.90;;;;;;6223893;22;20007;-78
2023/06/14 03:30:31;;;;;;;7.30;3.45;;;14.60;99.90;;;;;;6248521;22;20061;-78
2023/06/14 03:32:57;;;;;;;7.90;2.90;;;14.50;99.90;;;;;;6223573;22;20008;-77
2023/06/14 03:35:23;;;;;;;8.43;3.38;;;14.40;99.90;;;;;;6248189;22;20043;-77
2023/06/14 03:37:49;;;;;;;7.00;2.40;;;14.40;99.90;;;;;;6248684;22;20035;-78
2023/06/14 03:40:17;;;;;;;5.88;2.88;;;14.40;99.90;;;;;;6247215;22;20450;-77
2023/06/14 03:42:43;;;;;;;6.55;2.75;;;14.30;99.90;;;;;;6223182;22;20011;-78
2023/06/14 03:45:09;;;;;;;7.80;3.17;;;14.30;99.90;;;;;;6248944;22;20065;-79
2023/06/14 03:47:35;;;;;;;5.88;2.70;;;14.30;99.90;;;;;;6274974;22;20012;-77
2023/06/14 03:50:02;;;;;;;6.93;2.95;;;14.30;99.90;;;;;;6275890;22;20012;-78
2023/06/14 03:52:29;;;;;;;7.97;2.95;;;14.30;99.90;;;;;;6250717;22;20134;-77
2023/06/14 03:54:55;;;;;;;6.30;2.83;;;14.30;99.90;;;;;;6223733;22;20007;-77
2023/06/14 03:57:22;;;;;;;9.75;3.20;;;14.30;99.90;;;;;;6250356;22;20016;-79
2023/06/14 03:59:47;;;;;;;7.30;2.90;;;14.30;99.90;;;;;;6249976;22;20057;-77
2023/06/14 04:02:16;;;;;;;8.18;3.50;;;14.30;99.90;;;;;;6276945;22;20392;-77
2023/06/14 04:04:45;;;;;;;7.18;3.15;;;14.20;99.90;;;;;;6250272;22;20012;-78
2023/06/14 04:07:14;;;;;;;7.25;2.90;;;14.30;99.90;;;;;;6225254;22;20012;-77
2023/06/14 04:09:40;;;;;;;8.57;3.20;;;14.40;99.90;;;;;;6250066;22;20022;-77
2023/06/14 04:12:08;;;;;;;6.88;3.30;;;14.40;99.90;;;;;;6225244;22;20019;-77
2023/06/14 04:14:34;;;;;;;6.88;3.03;;;14.30;99.90;;;;;;6225240;22;20079;-78
2023/06/14 04:17:00;;;;;;;7.40;3.00;;;14.40;99.90;;;;;;6224946;22;20534;-78
2023/06/14 04:19:26;;;;;;;7.45;2.95;;;14.30;99.90;;;;;;6225391;22;20099;-77
2023/06/14 04:21:52;;;;;;;8.30;3.17;;;14.30;99.90;;;;;;6225808;22;20061;-78
2023/06/14 04:24:18;;;;;;;7.18;3.13;;;14.40;99.90;;;;;;6301350;22;20016;-80
2023/06/14 04:26:51;;;;;;;6.60;3.35;;;14.40;99.90;;;;;;6275583;22;20327;-76
2023/06/14 04:29:19;;;;;;;8.55;3.15;;;14.50;99.90;;;;;;6224848;22;20008;-77
2023/06/14 04:31:45;;;;;;;8.23;3.33;;;14.50;99.90;;;;;;6250736;22;20342;-77
2023/06/14 04:34:16;;;;;;;6.88;3.40;;;14.50;99.90;;;;;;6249530;22;20007;-76
2023/06/14 04:36:48;;;;;;;7.22;3.28;;;14.50;99.90;;;;;;6250822;22;20396;-77
2023/06/14 04:39:21;;;;;;;7.03;2.97;;;14.50;99.90;;;;;;6250302;22;20012;-76
2023/06/14 04:41:47;;;;;;;6.53;3.20;;;14.50;99.90;;;;;;6224719;22;20012;-76
2023/06/14 04:44:13;;;;;;;7.88;3.75;;;14.60;99.90;;;;;;6250223;22;20446;-76
2023/06/14 04:46:48;;;;;;;7.50;3.13;;;14.70;99.90;;;;;;6250119;22;20012;-77
2023/06/14 04:49:17;;;;;;;5.85;3.10;;;14.70;99.90;;;;;;6249959;22;20039;-76
2023/06/14 04:51:50;;;;;;;6.28;3.45;;;14.70;99.90;;;;;;6275824;22;20338;-76
2023/06/14 04:54:18;;;;;;;9.50;3.55;;;14.80;99.90;;;;;;6249479;22;20014;-75
2023/06/14 04:56:45;;;;;;;7.95;3.50;;;14.80;99.90;;;;;;6225483;22;20019;-76
2023/06/14 04:59:14;;;;;;;9.18;3.88;;;14.90;99.90;;;;;;6274056;22;20011;-76
2023/06/14 05:01:40;;;;;;;10.50;3.88;;;14.90;99.90;;;;;;6248314;22;20081;-76
2023/06/14 05:04:06;;;;;;;11.95;3.85;;;14.90;99.90;;;;;;6223708;22;20016;-76
2023/06/14 05:06:31;;;;;;;7.28;3.67;;;15.10;99.90;;;;;;6249165;22;20058;-76
2023/06/14 05:08:58;;;;;;;7.72;3.53;;;15.10;99.90;;;;;;6276365;22;20016;-77
2023/06/14 05:11:24;;;;;;;9.07;3.55;;;15.10;99.90;;;;;;6250652;22;20008;-76
2023/06/14 05:13:51;;;;;;;7.70;3.35;;;15.20;99.90;;;;;;6301548;22;20445;-76
2023/06/14 05:16:19;;;;;;;8.05;3.40;;;15.10;99.90;;;;;;6250833;22;20400;-80
2023/06/14 05:18:45;;;;;;;9.05;3.85;;;15.10;99.90;;;;;;6225228;22;20442;-77
2023/06/14 05:21:11;;;;;;;8.15;4.00;;;15.30;99.90;;;;;;6224579;22;20012;-77
2023/06/14 05:23:36;;;;;;;7.93;3.55;;;15.40;99.90;;;;;;6301040;22;20082;-77
2023/06/14 05:26:04;;;;;;;12.85;4.47;;;15.50;99.90;;;;;;6225235;22;20142;-76
2023/06/14 05:28:30;;;;;;;10.98;3.28;;;15.50;99.90;;;;;;6276144;22;20062;-76
2023/06/14 05:30:56;;;;;;;7.80;3.70;;;15.60;99.90;;;;;;6249847;22;20019;-76
2023/06/14 05:33:21;;;;;;;10.80;3.80;;;15.70;99.90;;;;;;6275571;22;20012;-78
2023/06/14 05:35:47;;;;;;;11.38;3.40;;;15.80;99.90;;;;;;6250696;22;20089;-76
2023/06/14 05:38:13;;;;;;;10.82;3.88;;;15.90;99.90;;;;;;6301914;22;20014;-76
2023/06/14 05:40:38;;;;;;;9.95;3.63;;;16.00;99.90;;;;;;6224949;22;20050;-76
2023/06/14 05:43:04;;;;;;;9.20;3.53;;;16.10;99.90;;;;;;6249940;22;20015;-78
2023/06/14 05:45:29;;;;;;;8.20;3.05;;;16.20;99.90;;;;;;6302274;22;20008;-77
2023/06/14 05:47:55;;;;;;;7.53;3.50;;;16.20;99.90;;;;;;6225190;22;20086;-77
2023/06/14 05:50:21;;;;;;;8.10;3.40;;;16.40;99.90;;;;;;6250494;22;20011;-77
2023/06/14 05:52:46;;;;;;;8.95;3.30;;;16.60;99.90;;;;;;6225091;22;20012;-77
2023/06/14 05:55:12;;;;;;;9.55;3.60;;;16.60;99.90;;;;;;6250276;22;20008;-78
2023/06/14 05:57:38;;;;;;;8.55;3.35;;;16.70;99.90;;;;;;6275280;22;20406;-77
2023/06/14 06:00:14;;;;;;;7.75;3.55;;;16.80;99.90;;;;;;6224591;22;20057;-77
2023/06/14 06:02:41;;;;;;;8.23;3.50;;;17.10;99.90;;;;;;6224698;22;20016;-78
2023/06/14 06:05:07;;;;;;;7.78;3.63;;;17.00;99.90;;;;;;6249824;22;20022;-78
2023/06/14 06:07:32;;;;;;;7.97;3.38;;;17.20;99.90;;;;;;6275453;22;20090;-80
2023/06/14 06:09:58;;;;;;;7.63;3.30;;;17.20;99.90;;;;;;6224367;22;20087;-80
2023/06/14 06:12:23;;;;;;;7.72;3.20;;;17.50;99.90;;;;;;6224803;22;20010;-80
2023/06/14 06:14:49;;;;;;;7.25;3.50;;;17.50;99.90;;;;;;6301247;22;20428;-81
2023/06/14 06:17:15;;;;;;;9.07;3.42;;;17.60;99.90;;;;;;6274726;22;20007;-80
2023/06/14 06:19:40;;;;;;;8.00;3.30;;;17.70;99.90;;;;;;6275386;22;20015;-81
2023/06/14 06:22:06;;;;;;;11.35;3.00;;;17.80;99.90;;;;;;6249908;22;20130;-77
2023/06/14 06:24:32;;;;;;;7.72;3.00;;;18.00;99.90;;;;;;6224672;22;20023;-78
2023/06/14 06:26:57;;;;;;;10.65;3.03;;;18.10;99.90;;;;;;6249343;22;20015;-78
2023/06/14 06:29:23;;;;;;;8.43;3.08;;;18.20;99.90;;;;;;6224845;22;20008;-78
2023/06/14 06:31:49;;;;;;;7.10;2.92;;;18.30;99.90;;;;;;6250204;22;20008;-78
2023/06/14 06:34:14;;;;;;;7.32;2.90;;;18.50;99.90;;;;;;6301134;22;20463;-78
2023/06/14 06:36:40;;;;;;;6.25;3.00;;;18.60;99.90;;;;;;6224704;22;20442;-78
2023/06/14 06:39:09;;;;;;;7.35;3.10;;;18.70;99.90;;;;;;6301357;22;20027;-78
2023/06/14 06:41:37;;;;;;;6.40;2.60;;;18.80;99.90;;;;;;6224518;22;20457;-78
2023/06/14 06:44:03;;;;;;;7.70;2.67;;;19.00;99.90;;;;;;6249680;22;20390;-78
2023/06/14 06:46:28;;;;;;;10.70;3.08;;;19.00;99.90;;;;;;6275343;22;20090;-78
2023/06/14 06:48:54;;;;;;;8.02;3.20;;;19.20;99.90;;;;;;6275347;22;20337;-78
2023/06/14 06:51:20;;;;;;;7.65;2.88;;;19.30;99.90;;;;;;6274886;22;20039;-78
2023/06/14 06:53:53;;;;;;;6.72;2.80;;;19.40;99.90;;;;;;6249597;22;20333;-80
2023/06/14 06:56:19;;;;;;;6.93;2.53;;;19.50;99.90;;;;;;6224587;22;20018;-78
2023/06/14 06:58:45;;;;;;;5.95;2.70;;;19.50;99.90;;;;;;6248981;22;20065;-78
2023/06/14 07:01:11;;;;;;;7.88;2.75;;;19.60;99.90;;;;;;6224516;22;20016;-78
2023/06/14 07:03:37;;;;;;;7.13;2.75;;;19.70;99.90;;;;;;6224378;22;20020;-79
2023/06/14 07:06:02;;;;;;;6.20;2.53;;;19.90;99.70;;;;;;6300793;22;20015;-80
2023/06/14 07:08:28;;;;;;;5.72;2.70;;;19.90;99.80;;;;;;6249695;22;20066;-80
2023/06/14 07:10:54;;;;;;;8.80;2.60;;;20.00;99.20;;;;;;6248874;22;20323;-79
2023/06/14 07:13:20;;;;;;;6.80;3.00;;;20.10;99.80;;;;;;6249061;22;20012;-78
2023/06/14 07:15:45;;;;;;;6.00;2.60;;;20.20;98.80;;;;;;6249593;22;20043;-78
2023/06/14 07:18:11;;;;;;;6.00;2.35;;;20.20;98.70;;;;;;6300941;22;20012;-78
2023/06/14 07:20:40;;;;;;;7.43;2.67;;;20.30;98.30;;;;;;6249646;22;20012;-78
2023/06/14 07:23:05;;;;;;;7.18;2.65;;;20.40;97.70;;;;;;6248273;22;20457;-78
2023/06/14 07:25:31;;;;;;;6.65;2.50;;;20.40;97.20;;;;;;6224353;22;20007;-79
2023/06/14 07:27:56;;;;;;;6.22;2.80;;;20.40;97.40;;;;;;6224285;22;20086;-79
2023/06/14 07:30:25;;;;;;;7.63;2.80;;;20.50;97.20;;;;;;6275174;22;20469;-78
2023/06/14 07:32:52;;;;;;;7.57;2.20;;;20.60;96.90;;;;;;6275101;22;20043;-78
2023/06/14 07:35:18;;;;;;;5.68;2.50;;;20.70;96.30;;;;;;6249342;22;20039;-77
2023/06/14 07:37:44;;;;;;;6.22;2.42;;;20.80;96.80;;;;;;6248835;22;20392;-77
2023/06/14 07:40:11;;;;;;;4.70;2.28;;;20.80;96.00;;;;;;6249436;22;20015;-78
2023/06/14 07:42:37;;;;;;;8.10;2.67;;;20.90;95.30;;;;;;6224239;22;20015;-77
2023/06/14 07:45:03;;;;;;;7.35;2.25;;;21.00;95.30;;;;;;6300658;22;20404;-78
2023/06/14 07:47:29;;;;;;;6.57;2.20;;;21.00;95.50;;;;;;6224035;22;20323;-78
2023/06/14 07:49:55;;;;;;;6.03;2.65;;;21.10;95.40;;;;;;6224132;22;20019;-77
2023/06/14 07:52:20;;;;;;;9.18;2.55;;;21.20;94.60;;;;;;6300755;22;20012;-78
2023/06/14 07:54:46;;;;;;;5.05;2.33;;;21.30;94.50;;;;;;6274779;22;20011;-78
2023/06/14 07:57:11;;;;;;;7.63;2.22;;;21.30;94.60;;;;;;6274264;22;20095;-77
2023/06/14 07:59:37;;;;;;;4.28;2.20;;;21.30;93.50;;;;;;6224176;22;20011;-78
2023/06/14 08:02:03;;;;;;;5.95;2.17;;;21.40;93.80;;;;;;6300645;22;20382;-77
2023/06/14 08:04:28;;;;;;;5.22;2.17;;;21.50;93.40;;;;;;6274594;22;20007;-77
2023/06/14 08:06:54;;;;;;;8.57;2.60;;;21.50;93.10;;;;;;6249094;22;20101;-76
2023/06/14 08:09:19;;;;;;;6.55;2.47;;;21.50;92.90;;;;;;6249310;22;20015;-76
2023/06/14 08:11:45;;;;;;;6.30;2.42;;;21.50;93.30;;;;;;6300697;22;20497;-76
2023/06/14 08:14:11;;;;;;;8.63;2.38;;;21.60;93.40;;;;;;6274767;22;20011;-76
2023/06/14 08:16:37;;;;;;;4.85;2.30;;;21.60;93.10;;;;;;6224009;22;20015;-77
2023/06/14 08:19:02;;;;;;;8.32;2.50;;;21.70;93.30;;;;;;6249316;22;20394;-77
2023/06/14 08:21:29;;;;;;;8.10;2.65;;;21.80;92.50;;;;;;6274109;22;20015;-77
2023/06/14 08:23:55;;;;;;;9.68;2.40;;;21.80;91.60;;;;;;6274881;22;20319;-77
2023/06/14 08:26:21;;;;;;;7.60;2.65;;;21.90;90.90;;;;;;6249036;22;20012;-77
2023/06/14 08:28:47;;;;;;;7.50;2.22;;;22.00;91.50;;;;;;6249343;22;20446;-76
2023/06/14 08:31:12;;;;;;;7.90;2.30;;;21.80;90.30;;;;;;6224074;22;20018;-77
2023/06/14 08:33:42;;;;;;;8.68;2.47;;;21.90;90.50;;;;;;6300904;22;20007;-77
2023/06/14 08:36:08;;;;;;;6.20;2.30;;;22.00;89.60;;;;;;6225586;22;20008;-77
2023/06/14 08:38:34;;;;;;;6.90;2.63;;;21.90;88.70;;;;;;6276437;22;20458;-76
2023/06/14 08:41:01;;;;;;;5.32;2.30;;;21.90;90.10;;;;;;6225852;22;20018;-76
2023/06/14 08:43:27;;;;;;;6.32;2.50;;;22.10;90.50;;;;;;6251038;22;20109;-77
2023/06/14 08:46:00;;;;;;;5.70;2.10;;;22.10;91.30;;;;;;6250764;22;20446;-79
2023/06/14 08:48:26;;;;;;;6.13;2.58;;;22.30;90.70;;;;;;6224736;22;20083;-77
2023/06/14 08:51:01;;;;;;;7.70;2.50;;;22.40;90.10;;;;;;6302389;22;20086;-76
2023/06/14 08:53:31;;;;;;;7.75;2.50;;;22.40;88.00;;;;;;6225671;22;20003;-77
2023/06/14 08:56:01;;;;;;;5.13;2.10;;;22.50;86.00;;;;;;6250844;22;20011;-76
2023/06/14 08:58:29;;;;;;;5.90;2.40;;;22.50;88.10;;;;;;6225440;22;20047;-77
2023/06/14 09:00:55;;;;;;;5.85;2.40;;;22.50;87.60;;;;;;6225660;22;20140;-76
2023/06/14 09:03:23;;;;;;;5.68;2.30;;;22.60;87.50;;;;;;6225443;22;20012;-76
2023/06/14 09:05:49;;;;;;;5.13;2.35;;;22.70;86.20;;;;;;6250341;22;20024;-77
2023/06/14 09:08:16;;;;;;;6.57;2.45;;;22.80;87.70;;;;;;6225028;22;20008;-76
2023/06/14 09:10:44;;;;;;;4.65;2.30;;;22.80;87.30;;;;;;6225891;22;20004;-78
2023/06/14 09:13:10;;;;;;;6.97;2.53;;;22.90;87.50;;;;;;6275815;22;20011;-75
2023/06/14 09:15:35;;;;;;;7.00;2.20;;;22.90;88.60;;;;;;6301508;22;20023;-75
2023/06/14 09:18:02;;;;;;;7.40;2.38;;;23.00;88.70;;;;;;6275776;22;20019;-74
2023/06/14 09:20:30;;;;;;;7.53;2.25;;;23.20;86.80;;;;;;6271072;22;20086;-75
2023/06/14 09:22:55;;;;;;;7.90;2.30;;;23.30;85.50;;;;;;6246188;22;20012;-75
2023/06/14 09:25:22;;;;;;;5.25;2.10;;;23.20;83.10;;;;;;6249851;22;20061;-76
2023/06/14 09:27:48;;;;;;;4.28;2.00;;;23.30;85.40;;;;;;6247951;22;20018;-77
2023/06/14 09:30:13;;;;;;;7.70;2.47;;;23.20;84.00;;;;;;6224984;22;20090;-75
2023/06/14 09:32:40;;;;;;;7.75;2.50;;;23.10;82.40;;;;;;6248235;22;20337;-77
2023/06/14 09:35:07;;;;;;;5.80;2.28;;;23.30;84.60;;;;;;6249328;22;20018;-74
2023/06/14 09:37:33;;;;;;;5.32;2.25;;;23.30;84.40;;;;;;6249939;22;20015;-74
2023/06/14 09:39:59;;;;;;;6.80;2.40;;;23.40;83.20;;;;;;6224059;22;20086;-74
2023/06/14 09:42:25;;;;;;;6.05;2.33;;;23.40;80.60;;;;;;6298967;22;20015;-75
2023/06/14 09:44:55;;;;;;;7.82;2.85;;;23.50;81.80;;;;;;6249134;22;20011;-76
2023/06/14 09:47:22;;;;;;;7.18;2.85;;;23.30;79.40;;;;;;6223809;22;20014;-76
2023/06/14 09:49:48;;;;;;;5.35;2.28;;;23.30;82.00;;;;;;6224475;22;20011;-76
2023/06/14 09:52:16;;;;;;;4.22;2.22;;;23.50;81.70;;;;;;6222388;22;20011;-76
2023/06/14 09:54:43;;;;;;;8.68;2.30;;;23.60;80.10;;;;;;6223256;22;20007;-76
2023/06/14 09:57:16;;;;;;;6.38;2.28;;;23.60;80.20;;;;;;6223678;22;20095;-77
2023/06/14 09:59:47;;;;;;;8.20;2.35;;;23.50;78.90;;;;;;6224285;22;20023;-77
2023/06/14 10:02:28;;;;;;;7.43;2.08;;;23.60;77.40;;;;;;6223468;22;20018;-77
2023/06/14 10:05:08;;;;;;;6.93;1.98;;;23.60;78.80;;;;;;6248503;22;20022;-76
2023/06/14 10:07:47;;;;;;;5.10;1.98;;;23.70;79.20;;;;;;6248616;22;20346;-76
2023/06/14 10:10:14;;;;;;;5.10;2.25;;;23.80;80.20;;;;;;6224491;22;20055;-77
2023/06/14 10:12:40;;;;;;;4.65;2.20;;;23.80;79.20;;;;;;6248637;22;20472;-78
2023/06/14 10:15:09;;;;;;;6.13;2.40;;;23.80;77.00;;;;;;6249504;22;20011;-76
2023/06/14 10:17:50;;;;;;;8.75;2.40;;;23.70;79.70;;;;;;6249540;22;20058;-76
2023/06/14 10:20:35;;;;;;;5.72;2.35;;;23.90;79.50;;;;;;6224090;22;20038;-77
2023/06/14 10:23:11;;;;;;;8.35;2.08;;;24.00;77.70;;;;;;6248669;22;20007;-77
2023/06/14 10:25:37;;;;;;;10.15;2.25;;;23.90;76.00;;;;;;6223933;22;20016;-77
2023/06/14 10:28:24;;;;;;;6.45;2.25;;;23.90;76.70;;;;;;6274735;22;20331;-76
2023/06/14 10:31:09;;;;;;;5.88;2.10;;;23.90;76.50;;;;;;6249108;22;20008;-75
2023/06/14 10:33:56;;;;;;;4.95;2.10;;;24.00;75.90;;;;;;6223822;22;20039;-78
2023/06/14 10:36:22;;;;;;;8.65;1.95;;;24.00;75.70;;;;;;6223871;22;20058;-76
2023/06/14 10:38:57;;;;;;;4.70;1.80;;;24.10;76.00;;;;;;6299240;22;20015;-77
2023/06/14 10:41:25;;;;;;;4.78;1.60;;;24.10;74.10;;;;;;6298092;22;20549;-77
2023/06/14 10:43:51;;;;;;;4.00;1.98;;;24.30;74.50;;;;;;6221890;22;20015;-77
2023/06/14 10:46:18;;;;;;;8.93;2.00;;;24.30;75.10;;;;;;6274309;22;20019;-77
2023/06/14 10:48:47;;;;;;;6.40;2.05;;;24.40;73.10;;;;;;6247901;22;20450;-77
2023/06/14 10:51:21;;;;;;;3.75;1.80;;;24.40;71.10;;;;;;6300505;22;20045;-75
2023/06/14 10:53:48;;;;;;;4.35;1.85;;;24.40;70.40;;;;;;6223719;22;20023;-75
2023/06/14 10:56:30;;;;;;;5.55;1.90;;;24.40;71.10;;;;;;6247572;22;20086;-76
2023/06/14 10:58:57;;;;;;;5.88;1.63;;;24.50;72.20;;;;;;6222381;22;20016;-76
2023/06/14 11:01:40;;;;;;;5.55;1.83;;;24.60;70.90;;;;;;6223884;22;20007;-77
2023/06/14 11:04:10;;;;;;;2.72;1.50;;;24.50;71.40;;;;;;6248429;22;20015;-77
2023/06/14 11:06:52;;;;;;;5.40;1.73;;;24.70;72.00;;;;;;6223148;22;20031;-77
2023/06/14 11:09:43;;;;;;;5.70;1.98;;;24.50;69.10;;;;;;6223456;22;20027;-77
2023/06/14 11:12:11;;;;;;;4.80;1.80;;;24.40;68.50;;;;;;6223699;22;20061;-77
2023/06/14 11:14:38;;;;;;;2.78;1.00;;;24.50;68.70;;;;;;6222290;22;20011;-76
2023/06/14 11:17:04;;;;;;;5.82;1.90;;;24.60;70.00;;;;;;6222384;22;20051;-78
2023/06/14 11:19:30;;;;;;;6.45;1.85;;;24.70;68.70;;;;;;6247803;22;20007;-78
2023/06/14 11:21:55;;;;;;;5.45;1.90;;;24.70;69.90;;;;;;6299725;22;20139;-76
2023/06/14 11:24:21;;;;;;;3.92;1.83;;;24.70;67.80;;;;;;6300198;22;20014;-75
2023/06/14 11:26:47;;;;;;;4.15;1.75;;;24.50;68.00;;;;;;6273941;22;20045;-75
2023/06/14 11:29:16;;;;;;;3.33;1.70;;;24.60;70.00;;;;;;6248409;22;20008;-76
2023/06/14 11:31:45;;;;;;;7.50;2.42;;;24.50;69.40;;;;;;6222671;22;20015;-76
2023/06/14 11:34:12;;;;;;;10.23;2.10;;;24.50;68.30;;;;;;6223127;22;20095;-75
2023/06/14 11:36:38;;;;;;;3.97;1.90;;;24.50;68.80;;;;;;6223089;22;20081;-76
2023/06/14 11:39:08;;;;;;;5.88;2.10;;;24.00;68.40;;;;;;6299075;22;20012;-75
2023/06/14 11:41:39;;;;;;;4.70;1.65;;;24.10;71.00;;;;;;6248526;22;20098;-75
2023/06/14 11:44:06;;;;;;;5.22;1.80;;;24.30;71.40;;;;;;6248570;22;20043;-77
2023/06/14 11:46:31;;;;;;;4.32;1.88;;;24.40;70.10;;;;;;6222414;22;20012;-76
2023/06/14 11:48:57;;;;;;;4.93;1.80;;;24.50;70.40;;;;;;6300441;22;20315;-76
2023/06/14 11:51:23;;;;;;;4.78;1.90;;;24.50;70.50;;;;;;6248788;22;20012;-75
2023/06/14 11:53:49;;;;;;;4.15;1.77;;;24.60;69.90;;;;;;6248373;22;20008;-75
2023/06/14 11:56:15;;;;;;;4.45;1.80;;;24.50;68.40;;;;;;6247686;22;20015;-75
2023/06/14 11:58:43;;;;;;;4.80;1.67;;;24.70;70.60;;;;;;6248394;22;20515;-76
2023/06/14 12:01:09;;;;;;;6.07;1.98;;;24.80;70.20;;;;;;6223264;22;20039;-78
2023/06/14 12:03:35;;;;;;;4.25;1.92;;;24.60;65.60;;;;;;6248626;22;20019;-76
2023/06/14 12:06:07;;;;;;;2.60;1.70;;;24.70;69.40;;;;;;6248806;22;20350;-76
2023/06/14 12:08:41;;;;;;;6.07;2.00;;;24.60;68.60;;;;;;6197736;22;20106;-76
2023/06/14 12:11:13;;;;;;;6.15;1.80;;;24.50;68.30;;;;;;6224496;22;20024;-76
2023/06/14 12:13:40;;;;;;;6.70;1.77;;;24.60;68.20;;;;;;6224004;22;20019;-75
2023/06/14 12:16:07;;;;;;;4.80;1.67;;;24.70;69.90;;;;;;6223112;22;20039;-81
2023/06/14 12:18:34;;;;;;;4.65;1.90;;;24.70;68.80;;;;;;6225311;22;20011;-86
2023/06/14 12:21:02;;;;;;;4.82;1.80;;;24.70;68.80;;;;;;6249629;22;20011;-84
2023/06/14 12:23:49;;;;;;;4.50;1.70;;;24.70;68.50;;;;;;6249477;22;20008;-79
2023/06/14 12:26:19;;;;;;;5.45;1.90;;;24.80;66.50;;;;;;6250594;22;20026;-78
2023/06/14 12:28:46;;;;;;;7.88;2.10;;;24.70;68.50;;;;;;6224309;22;20012;-78
2023/06/14 12:31:13;;;;;;;6.85;2.42;;;24.70;66.00;;;;;;6225152;22;20086;-76
2023/06/14 12:33:40;;;;;;;7.07;1.92;;;24.60;67.30;;;;;;6247774;22;20456;-78
2023/06/14 12:36:10;;;;;;;4.30;1.73;;;24.60;66.50;;;;;;6224876;22;20090;-77
2023/06/14 12:38:36;;;;;;;4.32;1.73;;;24.60;67.30;;;;;;6224608;22;20012;-77
2023/06/14 12:41:02;;;;;;;6.10;1.80;;;24.70;68.10;;;;;;6224361;22;20450;-78
2023/06/14 12:43:28;;;;;;;3.45;1.90;;;24.70;67.40;;;;;;6275716;22;20014;-81
2023/06/14 12:45:53;;;;;;;3.17;1.88;;;24.70;67.30;;;;;;6249246;22;20011;-77
2023/06/14 12:48:20;;;;;;;4.25;1.75;;;24.60;65.80;;;;;;6300437;22;20047;-77